Time;durP1;ratioP1;P1;durP2;ratioP2;P2;SDS_P1;SDS_P2;PMS_P1;PMS_P2;Temp;Humidity;BMP_temperature;BMP_pressure;BME280_temperature;BME280_humidity;BME280_pressure;Samples;Min_cycle;Max_cycle;Signal;HPM_P1;HPM_P2
2023/05/09 00:00:05;;;;;;;7.15;4.20;;;8.50;99.90;;;8.28;100.00;101217.69;5073460;28;20102;-86
2023/05/09 00:02:33;;;;;;;7.90;4.22;;;8.40;99.90;;;8.11;100.00;101212.44;5071602;28;20469;-86
2023/05/09 00:05:02;;;;;;;7.00;4.00;;;8.20;99.90;;;8.04;100.00;101214.22;5069228;28;20136;-86
2023/05/09 00:07:28;;;;;;;7.00;4.32;;;8.10;99.90;;;7.83;100.00;101210.34;5073628;28;20045;-86
2023/05/09 00:09:54;;;;;;;6.38;4.65;;;7.90;99.90;;;7.77;100.00;101225.50;5065005;28;20064;-85
2023/05/09 00:12:20;;;;;;;6.57;4.18;;;7.80;99.90;;;7.70;100.00;101219.13;5073986;28;20472;-85
2023/05/09 00:14:50;;;;;;;8.45;4.35;;;7.70;99.90;;;7.63;100.00;101231.75;5075699;28;20055;-85
2023/05/09 00:17:17;;;;;;;8.73;4.53;;;7.60;99.90;;;7.56;100.00;101228.91;5065370;28;20044;-86
2023/05/09 00:19:43;;;;;;;8.55;4.35;;;7.50;99.90;;;7.48;100.00;101223.56;5062405;28;20051;-85
2023/05/09 00:22:11;;;;;;;11.15;4.15;;;7.40;99.90;;;7.51;100.00;101228.63;5073139;28;20060;-85
2023/05/09 00:24:37;;;;;;;8.52;4.65;;;7.40;99.90;;;7.55;100.00;101219.09;5074815;28;20479;-84
2023/05/09 00:27:03;;;;;;;7.20;3.85;;;7.50;99.90;;;7.67;100.00;101224.94;5063542;28;20070;-85
2023/05/09 00:29:29;;;;;;;7.97;4.35;;;7.60;99.90;;;7.70;100.00;101221.00;5074545;28;20044;-85
2023/05/09 00:31:55;;;;;;;7.90;4.60;;;7.60;99.90;;;7.65;100.00;101217.97;5076024;28;20056;-85
2023/05/09 00:34:21;;;;;;;6.55;4.30;;;7.60;99.90;;;7.64;100.00;101219.88;5079014;28;20094;-85
2023/05/09 00:36:46;;;;;;;7.32;4.80;;;7.60;99.90;;;7.53;100.00;101202.13;5068117;28;20055;-86
2023/05/09 00:39:12;;;;;;;6.85;4.47;;;7.60;99.90;;;7.59;100.00;101209.53;5072209;28;20041;-86
2023/05/09 00:41:38;;;;;;;8.95;5.03;;;7.60;99.90;;;7.51;100.00;101201.47;5065096;28;20037;-86
2023/05/09 00:44:04;;;;;;;6.25;4.45;;;7.60;99.90;;;7.54;100.00;101203.81;5074529;28;20036;-86
2023/05/09 00:46:30;;;;;;;6.68;4.47;;;7.60;99.90;;;7.46;100.00;101190.34;5075482;28;20057;-85
2023/05/09 00:48:56;;;;;;;6.78;4.55;;;7.60;99.90;;;7.48;100.00;101196.41;5106070;28;20032;-86
2023/05/09 00:51:23;;;;;;;6.72;4.47;;;7.60;99.90;;;7.55;100.00;101199.22;5078661;28;20036;-86
2023/05/09 00:53:49;;;;;;;6.35;4.65;;;7.70;99.90;;;7.52;100.00;101186.88;5082423;28;20041;-85
2023/05/09 00:56:15;;;;;;;9.25;4.85;;;7.70;99.90;;;7.52;100.00;101175.16;5072947;28;20060;-85
2023/05/09 00:58:41;;;;;;;6.72;4.57;;;7.70;99.90;;;7.67;100.00;101186.91;5066275;28;20032;-85
2023/05/09 01:01:10;;;;;;;7.18;4.68;;;7.70;99.90;;;7.62;100.00;101192.06;5081461;28;20048;-85
2023/05/09 01:03:40;;;;;;;8.73;4.72;;;7.70;99.90;;;7.60;100.00;101188.69;5098808;28;20051;-85
2023/05/09 01:06:38;;;;;;;6.50;5.00;;;7.70;99.90;;;7.49;100.00;101192.69;5077798;28;20041;-86
2023/05/09 01:09:57;;;;;;;6.63;4.38;;;7.60;99.90;;;7.39;100.00;101186.63;5062320;28;20131;-86
2023/05/09 01:12:38;;;;;;;7.03;5.00;;;7.40;99.90;;;7.34;100.00;101184.50;5056745;28;20040;-85
2023/05/09 01:15:50;;;;;;;9.80;4.93;;;7.40;99.90;;;7.20;100.00;101172.56;5061805;28;20039;-84
2023/05/09 01:18:32;;;;;;;8.35;4.95;;;7.30;99.90;;;7.18;100.00;101175.44;5001870;28;20041;-85
2023/05/09 01:21:18;;;;;;;9.57;5.07;;;7.20;99.90;;;7.11;100.00;101157.34;5067797;28;20049;-85
2023/05/09 01:23:45;;;;;;;10.73;5.38;;;7.20;99.90;;;7.15;100.00;101169.53;5053796;28;20044;-85
2023/05/09 01:26:24;;;;;;;8.57;5.13;;;7.20;99.90;;;7.13;100.00;101174.28;5065921;28;20041;-85
2023/05/09 01:29:27;;;;;;;8.70;5.45;;;7.10;99.90;;;7.04;100.00;101149.94;5064838;28;20065;-85
2023/05/09 01:31:55;;;;;;;9.40;5.35;;;7.10;99.90;;;7.09;100.00;101153.97;5054542;28;20064;-84
2023/05/09 01:34:27;;;;;;;9.68;5.65;;;7.10;99.90;;;7.07;100.00;101156.03;5078077;28;20033;-85
2023/05/09 01:36:58;;;;;;;8.80;5.68;;;7.10;99.90;;;7.09;100.00;101162.09;5075849;28;20341;-83
2023/05/09 01:39:27;;;;;;;8.32;5.47;;;7.20;99.90;;;6.95;100.00;101129.31;5071193;28;20029;-84
2023/05/09 01:41:59;;;;;;;10.98;5.90;;;7.20;99.90;;;7.13;100.00;101156.16;5075286;28;20037;-84
2023/05/09 01:44:36;;;;;;;11.30;5.93;;;7.30;99.90;;;7.16;100.00;101153.06;5077890;28;20028;-85
2023/05/09 01:47:05;;;;;;;10.50;5.88;;;7.30;99.90;;;7.15;100.00;101151.38;5079665;28;20029;-85
2023/05/09 01:49:35;;;;;;;15.55;5.70;;;7.30;99.90;;;7.15;100.00;101151.38;5067148;28;20080;-85
2023/05/09 01:52:13;;;;;;;11.23;6.53;;;7.30;99.90;;;7.09;100.00;101143.13;5084605;28;20037;-84
2023/05/09 01:54:40;;;;;;;10.20;6.10;;;7.20;99.90;;;7.11;100.00;101143.78;5070816;28;20093;-84
2023/05/09 01:57:10;;;;;;;9.80;6.70;;;7.20;99.90;;;7.15;100.00;101147.81;5061731;28;20047;-84
2023/05/09 01:59:40;;;;;;;9.23;6.28;;;7.20;99.90;;;7.19;100.00;101151.88;5065699;28;20052;-85
2023/05/09 02:02:07;;;;;;;11.00;6.82;;;7.30;99.90;;;7.23;100.00;101147.75;5078487;28;20064;-85
2023/05/09 02:04:34;;;;;;;9.73;6.60;;;7.30;99.90;;;7.22;100.00;101146.09;5063079;28;20090;-85
2023/05/09 02:07:04;;;;;;;11.93;7.07;;;7.30;99.90;;;7.17;100.00;101133.03;5070597;28;20346;-85
2023/05/09 02:09:30;;;;;;;14.20;6.78;;;7.30;99.90;;;7.20;100.00;101142.72;5064177;28;20060;-84
2023/05/09 02:11:55;;;;;;;10.95;6.60;;;7.30;99.90;;;7.23;100.00;101134.19;5098162;28;20032;-84
2023/05/09 02:14:21;;;;;;;11.27;6.97;;;7.30;99.90;;;7.19;100.00;101143.72;5071277;28;20033;-85
2023/05/09 02:16:47;;;;;;;9.73;6.40;;;7.30;99.90;;;7.16;100.00;101135.94;5064695;28;20029;-85
2023/05/09 02:19:15;;;;;;;10.25;6.50;;;7.30;99.90;;;7.07;100.00;101139.75;5066320;28;20087;-85
2023/05/09 02:21:41;;;;;;;10.07;6.97;;;7.20;99.90;;;6.99;100.00;101137.94;5069304;28;20029;-85
2023/05/09 02:24:07;;;;;;;11.68;7.25;;;7.10;99.90;;;6.91;100.00;101134.25;5073821;28;20137;-83
2023/05/09 02:26:35;;;;;;;11.45;7.03;;;7.10;99.90;;;6.95;100.00;101134.75;5072470;28;20099;-85
2023/05/09 02:29:05;;;;;;;10.23;7.32;;;7.10;99.90;;;7.00;100.00;101132.34;5078252;28;20076;-84
2023/05/09 02:31:33;;;;;;;10.90;7.40;;;7.20;99.90;;;7.02;100.00;101126.72;5063772;28;20036;-84
2023/05/09 02:34:01;;;;;;;10.73;6.85;;;7.30;99.90;;;7.05;100.00;101119.06;5086223;28;20050;-83
2023/05/09 02:36:28;;;;;;;13.07;7.13;;;7.40;99.90;;;7.03;100.00;101121.13;5086134;28;20048;-81
2023/05/09 02:38:54;;;;;;;13.27;7.18;;;7.40;99.90;;;7.07;100.00;101129.75;5076000;28;20041;-83
2023/05/09 02:41:20;;;;;;;12.15;7.80;;;7.40;99.90;;;7.13;100.00;101139.88;5059103;28;20041;-84
2023/05/09 02:43:46;;;;;;;12.68;7.30;;;7.40;99.90;;;7.10;100.00;101128.53;5058845;28;20385;-83
2023/05/09 02:46:12;;;;;;;12.93;7.78;;;7.40;99.90;;;7.16;100.00;101125.06;5067200;28;20498;-83
2023/05/09 02:48:38;;;;;;;12.80;7.78;;;7.40;99.90;;;7.10;100.00;101096.81;5052372;28;20036;-83
2023/05/09 02:51:04;;;;;;;12.63;7.43;;;7.50;99.90;;;7.02;100.00;101094.16;5066998;28;20140;-82
2023/05/09 02:53:33;;;;;;;13.82;7.57;;;7.50;99.90;;;7.17;100.00;101115.94;5063995;28;20029;-84
2023/05/09 02:55:59;;;;;;;12.60;7.63;;;7.50;99.90;;;7.12;100.00;101115.63;5079694;28;20048;-83
2023/05/09 02:58:25;;;;;;;15.80;8.48;;;7.40;99.90;;;7.13;100.00;101125.44;5056476;28;20404;-83
2023/05/09 03:00:50;;;;;;;11.02;8.20;;;7.40;99.90;;;7.12;100.00;101121.03;5063149;28;20037;-84
2023/05/09 03:03:18;;;;;;;12.43;8.57;;;7.40;99.90;;;7.14;100.00;101124.41;5064905;28;20064;-84
2023/05/09 03:05:44;;;;;;;14.55;8.02;;;7.40;99.90;;;7.14;100.00;101119.84;5064066;28;20514;-83
2023/05/09 03:08:10;;;;;;;13.00;8.10;;;7.40;99.90;;;7.18;100.00;101107.59;5064396;28;20038;-83
2023/05/09 03:10:35;;;;;;;13.02;8.23;;;7.40;99.90;;;7.15;100.00;101105.25;5061360;28;20447;-85
2023/05/09 03:13:01;;;;;;;11.90;8.45;;;7.40;99.90;;;7.14;100.00;101113.56;5060565;28;20037;-83
2023/05/09 03:15:27;;;;;;;13.27;8.75;;;7.40;99.90;;;7.12;100.00;101107.47;5055373;28;20506;-83
2023/05/09 03:17:53;;;;;;;14.07;9.02;;;7.40;99.90;;;7.15;100.00;101104.41;5065161;28;20044;-83
2023/05/09 03:20:20;;;;;;;13.67;8.40;;;7.40;99.90;;;7.13;100.00;101104.59;5050342;28;20067;-84
2023/05/09 03:22:47;;;;;;;12.48;8.30;;;7.30;99.90;;;7.06;100.00;101098.22;5065133;28;20037;-82
2023/05/09 03:25:13;;;;;;;14.27;8.80;;;7.30;99.90;;;7.03;100.00;101091.28;5062401;28;20464;-85
2023/05/09 03:27:39;;;;;;;13.93;8.65;;;7.30;99.90;;;7.04;100.00;101095.69;5060369;28;20032;-82
2023/05/09 03:30:08;;;;;;;15.57;9.13;;;7.30;99.90;;;7.03;100.00;101085.84;5068610;28;20036;-82
2023/05/09 03:32:34;;;;;;;13.07;8.60;;;7.30;99.90;;;7.01;100.00;101093.34;5062475;28;20037;-83
2023/05/09 03:35:00;;;;;;;12.98;8.90;;;7.30;99.90;;;7.04;100.00;101103.81;5067272;28;20090;-83
2023/05/09 03:37:26;;;;;;;13.10;8.75;;;7.20;99.90;;;6.98;100.00;101092.84;5069592;28;20041;-83
2023/05/09 03:39:52;;;;;;;13.85;9.10;;;7.20;99.90;;;6.99;100.00;101098.09;5063038;28;20111;-83
2023/05/09 03:42:18;;;;;;;12.95;9.02;;;7.20;99.90;;;7.00;100.00;101107.06;5072467;28;20105;-80
2023/05/09 03:44:47;;;;;;;14.00;9.38;;;7.20;99.90;;;6.99;100.00;101111.66;5062514;28;20043;-80
2023/05/09 03:47:12;;;;;;;13.02;9.23;;;7.20;99.90;;;6.95;100.00;101098.63;5061971;28;20036;-79
2023/05/09 03:49:39;;;;;;;16.77;9.70;;;7.20;99.90;;;6.96;100.00;101109.31;5063496;28;20033;-80
2023/05/09 03:52:07;;;;;;;13.15;9.35;;;7.10;99.90;;;6.96;100.00;101111.16;5053006;28;20059;-80
2023/05/09 03:54:32;;;;;;;16.58;10.35;;;7.10;99.90;;;6.94;100.00;101103.22;5056483;28;20037;-80
2023/05/09 03:56:59;;;;;;;17.55;9.43;;;7.10;99.90;;;6.95;100.00;101099.50;5063044;28;20029;-80
2023/05/09 03:59:25;;;;;;;14.73;10.20;;;7.10;99.90;;;6.97;100.00;101096.56;5064624;28;20147;-80
2023/05/09 04:01:51;;;;;;;16.90;10.07;;;7.10;99.90;;;6.87;100.00;101078.69;5070993;28;20039;-79
2023/05/09 04:04:17;;;;;;;16.55;10.35;;;7.20;99.90;;;7.03;100.00;101085.03;5086997;28;20043;-79
2023/05/09 04:06:44;;;;;;;13.60;9.70;;;7.20;99.90;;;7.05;100.00;101081.09;5045637;28;20044;-79
2023/05/09 04:09:10;;;;;;;12.63;9.25;;;7.20;99.90;;;7.23;100.00;101088.06;5060325;28;20107;-79
2023/05/09 04:11:36;;;;;;;17.90;10.95;;;7.30;99.90;;;7.25;100.00;101086.00;5068525;28;20029;-79
2023/05/09 04:14:05;;;;;;;17.50;11.05;;;7.30;99.90;;;7.26;100.00;101082.25;5068790;28;20051;-78
2023/05/09 04:16:33;;;;;;;17.33;11.65;;;7.40;99.90;;;7.16;100.00;101051.81;5057774;28;20032;-79
2023/05/09 04:18:59;;;;;;;15.10;11.68;;;7.40;99.90;;;7.22;100.00;101070.09;5053591;28;20090;-79
2023/05/09 04:21:25;;;;;;;17.88;12.13;;;7.50;99.90;;;7.21;100.00;101060.25;5054607;28;20482;-80
2023/05/09 04:23:54;;;;;;;16.33;11.32;;;7.50;99.90;;;7.37;100.00;101066.53;5069565;28;20036;-80
2023/05/09 04:26:30;;;;;;;16.58;11.30;;;7.60;99.90;;;7.32;100.00;101048.94;5072502;28;20033;-81
2023/05/09 04:28:57;;;;;;;16.80;11.77;;;7.60;99.90;;;7.44;100.00;101067.50;5087992;28;20041;-80
2023/05/09 04:31:22;;;;;;;17.77;12.27;;;7.60;99.90;;;7.38;100.00;101055.50;5054703;28;20051;-80
2023/05/09 04:33:50;;;;;;;17.85;11.93;;;7.70;99.90;;;7.49;100.00;101065.06;5073513;28;20037;-79
2023/05/09 04:36:16;;;;;;;17.48;11.82;;;7.70;99.90;;;7.45;100.00;101052.91;5073589;28;20039;-79
2023/05/09 04:38:43;;;;;;;17.08;11.70;;;7.70;99.90;;;7.59;100.00;101062.09;5066144;28;20412;-80
2023/05/09 04:41:17;;;;;;;15.63;10.95;;;7.70;99.90;;;7.66;100.00;101059.44;5075358;28;20033;-80
2023/05/09 04:43:43;;;;;;;16.23;11.45;;;7.80;99.90;;;7.72;100.00;101064.16;5073285;28;20049;-78
2023/05/09 04:46:20;;;;;;;18.05;11.05;;;7.80;99.90;;;7.83;100.00;101073.69;5084052;28;20096;-80
2023/05/09 04:48:47;;;;;;;15.23;10.43;;;7.80;99.90;;;7.96;100.00;101073.03;5065500;28;20055;-81
2023/05/09 04:51:12;;;;;;;15.93;11.00;;;7.90;99.90;;;8.01;100.00;101068.69;5076644;28;20037;-79
2023/05/09 04:53:38;;;;;;;15.57;10.73;;;8.00;99.90;;;8.05;100.00;101070.00;5054427;28;20036;-77
2023/05/09 04:56:06;;;;;;;15.23;10.68;;;8.10;99.90;;;8.11;100.00;101057.53;5064130;28;20044;-77
2023/05/09 04:58:37;;;;;;;19.10;11.02;;;8.20;99.90;;;8.22;100.00;101058.91;5060882;28;20464;-75
2023/05/09 05:01:05;;;;;;;14.43;11.05;;;8.30;99.90;;;8.33;100.00;101061.13;5068569;28;20036;-77
2023/05/09 05:03:32;;;;;;;15.40;11.05;;;8.50;99.90;;;8.48;100.00;101057.53;5053014;28;20029;-78
2023/05/09 05:05:58;;;;;;;17.95;10.75;;;8.60;99.90;;;8.53;100.00;101051.56;5057841;28;20037;-77
2023/05/09 05:08:24;;;;;;;15.55;10.18;;;8.70;99.90;;;8.66;100.00;101050.84;5064038;28;20079;-79
2023/05/09 05:10:51;;;;;;;16.48;10.30;;;8.80;99.90;;;8.70;100.00;101044.81;5058409;28;20503;-81
2023/05/09 05:13:20;;;;;;;16.88;10.82;;;8.90;99.90;;;8.78;100.00;101041.97;5063508;28;20029;-80
2023/05/09 05:15:49;;;;;;;13.18;9.85;;;9.00;99.90;;;8.86;100.00;101040.13;5053830;28;20401;-80
2023/05/09 05:18:15;;;;;;;13.25;9.82;;;9.10;99.90;;;9.06;100.00;101041.16;5054431;28;20094;-79
2023/05/09 05:20:41;;;;;;;16.20;9.38;;;9.20;99.90;;;9.13;100.00;101030.28;5070472;28;20025;-81
2023/05/09 05:23:08;;;;;;;15.07;10.27;;;9.40;99.90;;;9.24;100.00;101030.81;5064543;28;20036;-82
2023/05/09 05:25:34;;;;;;;13.75;9.60;;;9.50;99.90;;;9.39;100.00;101027.97;5095295;28;20400;-82
2023/05/09 05:28:01;;;;;;;13.32;9.30;;;9.60;99.90;;;9.58;100.00;101032.72;5063658;28;20056;-81
2023/05/09 05:30:27;;;;;;;16.60;9.98;;;9.70;99.90;;;9.67;100.00;101036.09;5062947;28;20041;-81
2023/05/09 05:32:52;;;;;;;13.95;9.70;;;9.90;99.90;;;9.82;100.00;101030.53;5052593;28;20388;-81
2023/05/09 05:35:22;;;;;;;14.67;9.23;;;10.00;99.90;;;9.93;100.00;101029.94;5053298;28;20029;-81
2023/05/09 05:37:49;;;;;;;15.48;9.15;;;10.10;99.90;;;9.98;100.00;101032.06;5058078;28;20048;-82
2023/05/09 05:40:15;;;;;;;13.82;8.93;;;10.30;99.90;;;10.12;100.00;101023.91;5066334;28;20056;-82
2023/05/09 05:42:45;;;;;;;12.52;8.48;;;10.40;99.90;;;10.29;100.00;101022.50;5072256;28;20086;-82
2023/05/09 05:45:11;;;;;;;11.43;9.00;;;10.50;99.90;;;10.41;100.00;101013.75;5082448;28;20021;-82
2023/05/09 05:47:40;;;;;;;12.50;8.60;;;10.70;99.90;;;10.48;100.00;101014.63;5077279;28;20068;-82
2023/05/09 05:50:10;;;;;;;12.40;8.63;;;10.80;99.90;;;10.66;100.00;101016.75;5064503;28;20136;-84
2023/05/09 05:52:41;;;;;;;14.88;8.90;;;10.90;99.90;;;10.84;100.00;101010.66;5053359;28;20021;-82
2023/05/09 05:55:11;;;;;;;12.77;7.97;;;11.10;99.90;;;10.91;100.00;100997.00;5058801;28;20068;-82
2023/05/09 05:57:37;;;;;;;14.32;8.68;;;11.20;99.90;;;11.03;99.24;101000.78;5052168;28;20087;-82
2023/05/09 06:00:10;;;;;;;13.18;9.63;;;11.30;99.90;;;11.17;97.86;100992.59;5063942;28;20035;-80
2023/05/09 06:02:43;;;;;;;14.15;9.50;;;11.40;99.90;;;11.31;97.33;100998.84;5057363;28;20045;-82
2023/05/09 06:05:11;;;;;;;15.73;8.18;;;11.60;99.90;;;11.36;96.35;100988.13;5066381;28;20128;-85
2023/05/09 06:07:43;;;;;;;11.82;7.95;;;11.70;99.90;;;11.53;95.22;100991.22;5057992;28;20550;-82
2023/05/09 06:10:09;;;;;;;16.50;9.25;;;11.80;99.90;;;11.63;93.65;100977.94;5073003;28;20125;-83
2023/05/09 06:12:36;;;;;;;14.93;8.88;;;11.90;99.90;;;11.89;93.71;100978.88;5073745;28;20046;-82
2023/05/09 06:15:04;;;;;;;14.55;8.70;;;12.10;99.90;;;12.09;91.95;100975.25;5057569;28;20040;-82
2023/05/09 06:17:33;;;;;;;13.80;8.30;;;12.30;99.90;;;12.28;90.15;100972.63;5066001;28;20033;-82
2023/05/09 06:19:59;;;;;;;13.98;8.05;;;12.50;99.90;;;12.50;89.17;100976.69;5060695;28;20048;-81
2023/05/09 06:22:24;;;;;;;12.48;8.07;;;12.70;99.90;;;12.68;87.47;100968.75;5074799;28;20033;-83
2023/05/09 06:24:50;;;;;;;16.20;8.50;;;12.90;99.90;;;12.82;86.98;100953.88;5059722;28;20373;-84
2023/05/09 06:27:16;;;;;;;17.88;8.30;;;13.10;99.90;;;12.96;85.21;100971.03;5065382;28;20032;-81
2023/05/09 06:29:41;;;;;;;12.35;8.05;;;13.20;99.90;;;12.98;84.76;100966.16;5060180;28;20044;-83
2023/05/09 06:32:07;;;;;;;12.50;8.30;;;13.30;99.90;;;13.09;84.39;100954.47;5061101;28;20036;-81
2023/05/09 06:34:33;;;;;;;10.85;7.57;;;13.40;99.90;;;13.27;83.65;100955.56;5055745;28;20484;-84
2023/05/09 06:36:58;;;;;;;13.13;7.60;;;13.50;99.90;;;13.32;82.12;100947.50;5056737;28;20404;-84
2023/05/09 06:39:24;;;;;;;11.00;7.63;;;13.60;99.90;;;13.44;82.94;100952.25;5058860;28;20086;-84
2023/05/09 06:41:50;;;;;;;13.00;7.85;;;13.70;99.90;;;13.54;80.80;100936.09;5057078;28;20056;-84
2023/05/09 06:44:23;;;;;;;9.63;6.68;;;13.80;99.90;;;13.77;78.19;100940.88;5055965;28;20036;-85
2023/05/09 06:46:49;;;;;;;11.27;7.15;;;14.00;99.90;;;13.89;77.80;100942.81;5059757;28;20094;-84
2023/05/09 06:49:15;;;;;;;13.52;8.32;;;14.10;99.90;;;14.02;78.64;100942.66;5055712;28;20393;-84
2023/05/09 06:51:41;;;;;;;14.82;7.60;;;14.30;99.90;;;14.14;76.34;100934.47;5055422;28;20033;-85
2023/05/09 06:54:06;;;;;;;16.13;7.50;;;14.40;99.90;;;14.23;75.09;100932.22;5072048;28;20024;-85
2023/05/09 06:56:32;;;;;;;14.27;8.00;;;14.50;99.90;;;14.36;74.91;100931.19;5055137;28;20522;-84
2023/05/09 06:58:58;;;;;;;17.08;9.43;;;14.50;99.90;;;14.29;73.51;100925.78;5071638;28;20045;-84
2023/05/09 07:01:24;;;;;;;16.30;9.68;;;14.60;99.90;;;14.58;77.80;100928.69;5062338;28;20036;-84
2023/05/09 07:03:49;;;;;;;16.15;8.20;;;14.70;99.90;;;14.85;74.65;100921.94;5072423;28;20037;-85
2023/05/09 07:06:15;;;;;;;14.38;8.50;;;14.90;99.90;;;14.86;72.18;100898.91;5064646;28;20049;-85
2023/05/09 07:08:42;;;;;;;11.88;7.50;;;15.10;99.90;;;14.82;70.35;100902.09;5065779;28;20032;-82
2023/05/09 07:11:07;;;;;;;12.65;7.15;;;15.10;99.90;;;14.92;70.87;100906.19;5061169;28;20252;-84
2023/05/09 07:13:33;;;;;;;12.23;6.60;;;15.20;99.90;;;14.96;68.45;100899.13;5055582;28;20098;-84
2023/05/09 07:16:00;;;;;;;12.25;7.05;;;15.20;99.90;;;14.88;68.52;100894.00;5066297;28;20040;-85
2023/05/09 07:18:25;;;;;;;14.57;7.03;;;15.20;99.90;;;15.14;68.70;100900.91;5054674;28;20388;-84
2023/05/09 07:20:51;;;;;;;12.95;7.65;;;15.30;99.90;;;15.26;68.54;100891.81;5057196;28;20408;-84
2023/05/09 07:23:20;;;;;;;13.98;7.57;;;15.50;99.90;;;15.30;68.41;100885.56;5056610;28;20037;-84
2023/05/09 07:25:48;;;;;;;12.85;7.43;;;15.50;99.90;;;15.42;69.03;100881.97;5056698;28;20040;-84
2023/05/09 07:28:14;;;;;;;14.10;6.75;;;15.60;99.90;;;15.62;67.75;100871.34;5061242;28;20041;-83
2023/05/09 07:30:40;;;;;;;11.13;6.72;;;15.80;99.90;;;15.88;66.17;100874.63;5054784;28;20086;-82
2023/05/09 07:33:06;;;;;;;12.50;6.65;;;16.10;99.90;;;15.91;65.45;100865.91;5056940;28;20465;-84
2023/05/09 07:35:32;;;;;;;10.68;6.53;;;16.20;99.90;;;16.07;64.51;100867.00;5054627;28;20029;-84
2023/05/09 07:37:57;;;;;;;12.38;6.80;;;16.30;99.90;;;16.17;64.49;100871.81;5050224;28;20040;-84
2023/05/09 07:40:23;;;;;;;9.38;6.45;;;16.40;99.90;;;16.35;65.54;100872.69;5070919;28;20033;-84
2023/05/09 07:42:53;;;;;;;10.30;5.93;;;16.50;99.90;;;16.52;61.61;100848.72;5066658;28;20041;-83
2023/05/09 07:45:19;;;;;;;9.18;5.80;;;16.70;99.90;;;16.70;59.95;100841.25;5055131;28;20582;-82
2023/05/09 07:47:45;;;;;;;9.10;6.00;;;16.90;99.90;;;16.91;62.46;100841.56;5063117;28;20029;-83
2023/05/09 07:50:10;;;;;;;8.38;5.70;;;17.10;99.90;;;17.17;60.85;100850.19;5063800;28;20041;-83
2023/05/09 07:52:36;;;;;;;11.02;6.00;;;17.30;99.90;;;17.21;59.51;100843.06;5069016;28;20042;-84
2023/05/09 07:55:02;;;;;;;9.68;5.65;;;17.40;99.90;;;17.53;59.71;100850.63;5057665;28;20529;-84
2023/05/09 07:57:28;;;;;;;9.93;6.10;;;17.70;99.90;;;17.58;58.32;100838.81;5054381;28;20089;-85
2023/05/09 07:59:55;;;;;;;10.32;5.88;;;17.80;99.90;;;17.55;58.67;100823.63;5070448;28;20408;-83
2023/05/09 08:02:20;;;;;;;9.27;5.77;;;17.80;99.90;;;17.80;56.60;100824.97;5054235;28;20056;-84
2023/05/09 08:04:47;;;;;;;11.20;6.05;;;18.00;99.90;;;17.76;55.78;100823.81;5056132;28;20074;-83
2023/05/09 08:07:13;;;;;;;11.48;6.07;;;18.00;99.90;;;17.94;57.49;100825.38;5060031;28;20040;-83
2023/05/09 08:09:39;;;;;;;8.80;5.68;;;18.10;99.90;;;18.12;56.69;100826.94;5057750;28;20041;-83
2023/05/09 08:12:05;;;;;;;11.43;5.88;;;18.30;99.90;;;18.40;57.57;100823.00;5053467;28;20033;-84
2023/05/09 08:14:31;;;;;;;8.27;5.80;;;18.50;99.90;;;18.47;55.09;100808.97;5057944;28;20154;-83
2023/05/09 08:16:57;;;;;;;15.70;6.72;;;18.70;99.90;;;18.48;55.55;100807.06;5064397;28;20337;-84
2023/05/09 08:19:24;;;;;;;12.05;5.85;;;18.70;99.90;;;18.53;55.38;100809.84;5066280;28;20040;-83
2023/05/09 08:21:51;;;;;;;10.30;5.50;;;18.80;99.90;;;18.55;56.18;100813.16;5059490;28;20497;-81
2023/05/09 08:24:17;;;;;;;7.80;5.32;;;18.80;99.90;;;18.63;52.44;100798.03;5053150;28;20431;-84
2023/05/09 08:26:43;;;;;;;8.68;5.30;;;18.90;98.60;;;18.71;53.71;100810.50;5059867;28;20024;-83
2023/05/09 08:29:09;;;;;;;8.50;5.50;;;18.90;99.50;;;18.81;53.35;100802.25;5051180;28;20055;-80
2023/05/09 08:31:35;;;;;;;8.68;5.40;;;19.00;99.50;;;19.04;53.21;100792.72;5053985;28;20037;-84
2023/05/09 08:34:01;;;;;;;7.68;5.45;;;19.20;99.50;;;19.38;51.59;100792.28;5057912;28;20435;-84
2023/05/09 08:36:26;;;;;;;7.88;5.35;;;19.50;98.30;;;19.37;50.59;100774.03;5056697;28;20033;-82
2023/05/09 08:38:52;;;;;;;7.13;5.00;;;19.60;97.60;;;19.57;52.12;100777.91;5053772;28;20033;-84
2023/05/09 08:41:25;;;;;;;7.45;4.90;;;19.70;98.60;;;19.61;50.77;100767.94;5061887;28;20538;-82
2023/05/09 08:43:51;;;;;;;11.85;5.40;;;19.80;97.20;;;19.74;52.20;100772.13;5057928;28;20067;-83
2023/05/09 08:46:23;;;;;;;10.88;4.60;;;20.00;98.30;;;19.79;50.67;100763.84;5060478;28;20044;-84
2023/05/09 08:48:50;;;;;;;10.77;4.93;;;20.00;97.10;;;19.69;49.47;100748.06;5059067;28;20051;-84
2023/05/09 08:51:16;;;;;;;8.75;5.20;;;20.00;96.30;;;20.07;51.37;100769.09;5068234;28;20435;-85
2023/05/09 08:53:43;;;;;;;7.68;5.03;;;20.10;97.40;;;20.15;50.06;100748.34;5074705;28;20037;-84
2023/05/09 08:56:09;;;;;;;7.65;4.90;;;20.30;96.70;;;20.02;49.27;100722.06;5054078;28;20174;-82
2023/05/09 08:58:35;;;;;;;7.53;4.65;;;20.40;96.30;;;20.50;49.13;100752.97;5064218;28;20027;-83
2023/05/09 09:01:06;;;;;;;6.93;5.10;;;20.60;96.30;;;20.74;47.74;100735.72;5066089;28;20060;-85
2023/05/09 09:03:32;;;;;;;6.60;4.80;;;20.90;94.80;;;20.51;48.48;100735.25;5056557;28;20040;-82
2023/05/09 09:05:59;;;;;;;9.32;5.20;;;20.90;95.20;;;20.55;48.19;100739.09;5068323;28;20040;-81
2023/05/09 09:08:27;;;;;;;6.57;4.82;;;20.80;95.00;;;20.75;46.74;100725.44;5068690;28;20034;-82
2023/05/09 09:10:53;;;;;;;10.50;4.63;;;20.90;93.70;;;20.62;45.03;100722.19;5081438;28;20057;-83
2023/05/09 09:13:20;;;;;;;6.93;4.18;;;20.90;92.50;;;20.77;45.23;100709.34;5070869;28;20025;-83
2023/05/09 09:15:48;;;;;;;8.50;4.20;;;21.10;92.50;;;21.00;44.56;100719.00;5086467;28;20052;-84
2023/05/09 09:18:29;;;;;;;6.40;3.85;;;21.20;91.70;;;21.20;43.14;100706.09;5071648;28;20025;-82
2023/05/09 09:21:06;;;;;;;5.70;3.80;;;21.40;90.70;;;21.23;43.30;100709.13;5072244;28;20047;-84
2023/05/09 09:23:32;;;;;;;6.75;3.65;;;21.50;90.80;;;21.16;43.00;100702.25;5077632;28;20049;-78
2023/05/09 09:26:03;;;;;;;7.27;3.97;;;21.40;90.30;;;21.34;43.24;100706.28;5064359;28;20033;-78
2023/05/09 09:28:29;;;;;;;8.85;5.03;;;21.60;90.50;;;21.34;43.93;100718.22;5070981;28;20045;-79
2023/05/09 09:30:56;;;;;;;9.10;4.47;;;21.50;91.00;;;21.50;44.04;100710.59;5078512;28;20116;-79
2023/05/09 09:33:23;;;;;;;8.48;4.50;;;;;;;21.82;44.15;100716.78;5073902;28;20037;-82
2023/05/09 09:35:52;;;;;;;8.10;4.60;;;21.70;90.80;;;21.56;43.12;100686.44;5063757;28;20045;-85
2023/05/09 09:38:23;;;;;;;7.65;4.13;;;22.00;89.50;;;21.69;43.51;100704.41;5055894;28;20494;-82
2023/05/09 09:40:54;;;;;;;8.13;4.07;;;22.00;90.50;;;21.63;42.30;100694.44;5054745;28;20131;-80
2023/05/09 09:43:31;;;;;;;6.18;4.45;;;21.90;88.50;;;21.85;42.85;100677.31;5062547;28;20040;-81
2023/05/09 09:46:02;;;;;;;6.65;4.68;;;22.00;89.10;;;21.99;42.13;100669.94;5075857;28;20053;-80
2023/05/09 09:48:34;;;;;;;7.05;4.35;;;22.20;87.90;;;21.94;42.93;100672.78;5073674;28;20098;-79
2023/05/09 09:51:18;;;;;;;7.10;4.30;;;;;;;22.26;42.20;100676.88;5066855;28;20044;-82
2023/05/09 09:53:45;;;;;;;7.40;4.80;;;;;;;22.57;42.54;100675.72;5073017;28;20083;-80
2023/05/09 09:56:11;;;;;;;7.63;4.47;;;22.10;87.90;;;22.37;41.63;100652.56;5057310;28;20037;-79
2023/05/09 09:58:38;;;;;;;5.50;3.88;;;;;;;22.93;42.94;100666.06;5058743;28;20041;-81
2023/05/09 10:01:09;;;;;;;8.02;4.20;;;;;;;23.06;41.01;100650.56;5051382;28;20036;-79
2023/05/09 10:03:46;;;;;;;8.50;4.25;;;;;;;23.19;41.28;100654.56;5060567;28;20032;-81
2023/05/09 10:06:14;;;;;;;7.60;4.28;;;;;;;23.02;40.72;100641.19;5057244;28;20120;-79
2023/05/09 10:08:45;;;;;;;6.38;4.30;;;;;;;23.26;40.06;100639.16;5052569;28;20025;-81
2023/05/09 10:11:12;;;;;;;7.32;4.30;;;;;;;23.55;39.52;100632.56;5060542;28;20139;-81
2023/05/09 10:13:38;;;;;;;5.93;3.72;;;;;;;24.22;38.79;100633.28;5057757;28;20264;-81
2023/05/09 10:16:09;;;;;;;5.93;3.50;;;;;;;25.54;38.19;100639.28;5052759;28;20033;-80
2023/05/09 10:18:36;;;;;;;7.13;4.15;;;;;;;26.12;36.97;100623.44;5053179;28;20456;-81